Atlanta, Georgia
Traffic Map
Current Weather Conditions
Atlanta, Georgia
Broken Clouds
Broken Clouds
67°
Feels Like: 67°
Wind Chill: 67° Ceiling: 6000
Heat Index: 67° Visibility: 10mi
Dew Point: 55° Wind: 9mph
Humidity: 66% Direction: 200° (SSW)
Pressure: 29.78in Gusts: 0mph
Raw Report DataKATL 250452Z 20008KT 10SM BKN060 19/13 A2978 RMK AO2 SLP077 T01940128 402560133
Traffic Incident Summary
Active as of:
Severity:
Category:
InformationThere was an issue retrieving the traffic information for this location. Please try a different location or try again shortly.
Advertisements
Track Severe Weather on mobile